sensor_id;sensor_type;location;lat;lon;timestamp;P1;durP1;ratioP1;P2;durP2;ratioP2
40489;SDS011;26196;52.302;10.572;2023-06-22T00:03:22;9.93;;;7.30;;
40489;SDS011;26196;52.302;10.572;2023-06-22T00:07:24;10.95;;;7.90;;
40489;SDS011;26196;52.302;10.572;2023-06-22T00:11:24;8.73;;;7.93;;
40489;SDS011;26196;52.302;10.572;2023-06-22T00:15:25;9.13;;;8.23;;
40489;SDS011;26196;52.302;10.572;2023-06-22T00:19:25;9.57;;;8.68;;
40489;SDS011;26196;52.302;10.572;2023-06-22T00:23:26;8.43;;;7.60;;
40489;SDS011;26196;52.302;10.572;2023-06-22T00:27:27;8.77;;;7.97;;
40489;SDS011;26196;52.302;10.572;2023-06-22T00:31:27;8.60;;;7.80;;
40489;SDS011;26196;52.302;10.572;2023-06-22T00:35:28;8.02;;;7.22;;
40489;SDS011;26196;52.302;10.572;2023-06-22T00:39:31;8.55;;;7.68;;
40489;SDS011;26196;52.302;10.572;2023-06-22T00:43:33;9.45;;;7.80;;
40489;SDS011;26196;52.302;10.572;2023-06-22T00:47:34;10.98;;;7.88;;
40489;SDS011;26196;52.302;10.572;2023-06-22T00:51:36;8.43;;;7.68;;
40489;SDS011;26196;52.302;10.572;2023-06-22T00:55:39;7.90;;;7.18;;
40489;SDS011;26196;52.302;10.572;2023-06-22T00:59:43;9.15;;;8.30;;
40489;SDS011;26196;52.302;10.572;2023-06-22T01:03:44;8.07;;;7.32;;
40489;SDS011;26196;52.302;10.572;2023-06-22T01:08:04;8.77;;;7.95;;
40489;SDS011;26196;52.302;10.572;2023-06-22T01:16:18;8.27;;;7.05;;
40489;SDS011;26196;52.302;10.572;2023-06-22T01:20:23;8.73;;;7.88;;
40489;SDS011;26196;52.302;10.572;2023-06-22T01:29:10;9.50;;;7.53;;
40489;SDS011;26196;52.302;10.572;2023-06-22T01:33:13;8.55;;;7.75;;
40489;SDS011;26196;52.302;10.572;2023-06-22T01:37:15;8.90;;;7.72;;
40489;SDS011;26196;52.302;10.572;2023-06-22T01:41:16;10.65;;;7.65;;
40489;SDS011;26196;52.302;10.572;2023-06-22T01:45:18;8.35;;;7.53;;
40489;SDS011;26196;52.302;10.572;2023-06-22T01:49:19;7.47;;;6.75;;
40489;SDS011;26196;52.302;10.572;2023-06-22T01:53:22;8.57;;;6.87;;
40489;SDS011;26196;52.302;10.572;2023-06-22T01:57:23;7.90;;;7.13;;
40489;SDS011;26196;52.302;10.572;2023-06-22T02:01:25;9.68;;;8.05;;
40489;SDS011;26196;52.302;10.572;2023-06-22T02:05:34;9.55;;;7.43;;
40489;SDS011;26196;52.302;10.572;2023-06-22T02:09:38;7.80;;;7.10;;
40489;SDS011;26196;52.302;10.572;2023-06-22T02:13:42;7.75;;;6.93;;
40489;SDS011;26196;52.302;10.572;2023-06-22T02:17:43;8.85;;;7.45;;
40489;SDS011;26196;52.302;10.572;2023-06-22T02:21:45;7.85;;;6.43;;
40489;SDS011;26196;52.302;10.572;2023-06-22T02:25:45;12.18;;;7.18;;
40489;SDS011;26196;52.302;10.572;2023-06-22T02:29:46;7.53;;;6.72;;
40489;SDS011;26196;52.302;10.572;2023-06-22T02:33:46;8.75;;;6.65;;
40489;SDS011;26196;52.302;10.572;2023-06-22T02:37:48;8.45;;;7.00;;
40489;SDS011;26196;52.302;10.572;2023-06-22T02:41:53;7.50;;;6.80;;
40489;SDS011;26196;52.302;10.572;2023-06-22T02:45:54;8.43;;;6.25;;
40489;SDS011;26196;52.302;10.572;2023-06-22T02:49:55;7.18;;;6.57;;
40489;SDS011;26196;52.302;10.572;2023-06-22T02:53:55;7.47;;;6.70;;
40489;SDS011;26196;52.302;10.572;2023-06-22T02:57:57;8.93;;;7.28;;
40489;SDS011;26196;52.302;10.572;2023-06-22T03:01:59;7.35;;;6.47;;
40489;SDS011;26196;52.302;10.572;2023-06-22T03:06:00;7.40;;;6.38;;
40489;SDS011;26196;52.302;10.572;2023-06-22T03:10:01;8.68;;;6.82;;
40489;SDS011;26196;52.302;10.572;2023-06-22T03:14:01;10.40;;;6.20;;
40489;SDS011;26196;52.302;10.572;2023-06-22T03:18:02;14.32;;;6.53;;
40489;SDS011;26196;52.302;10.572;2023-06-22T03:22:02;11.45;;;7.25;;
40489;SDS011;26196;52.302;10.572;2023-06-22T03:26:03;8.32;;;6.95;;
40489;SDS011;26196;52.302;10.572;2023-06-22T03:30:04;9.68;;;6.38;;
40489;SDS011;26196;52.302;10.572;2023-06-22T03:34:08;13.27;;;7.20;;
40489;SDS011;26196;52.302;10.572;2023-06-22T03:38:08;13.20;;;7.57;;
40489;SDS011;26196;52.302;10.572;2023-06-22T03:42:08;26.10;;;10.60;;
40489;SDS011;26196;52.302;10.572;2023-06-22T03:46:09;50.07;;;14.87;;
40489;SDS011;26196;52.302;10.572;2023-06-22T03:50:09;42.42;;;13.13;;
40489;SDS011;26196;52.302;10.572;2023-06-22T03:54:09;36.25;;;12.25;;
40489;SDS011;26196;52.302;10.572;2023-06-22T03:58:10;22.92;;;11.23;;
40489;SDS011;26196;52.302;10.572;2023-06-22T04:02:10;25.35;;;10.40;;
40489;SDS011;26196;52.302;10.572;2023-06-22T04:06:11;16.63;;;9.82;;
40489;SDS011;26196;52.302;10.572;2023-06-22T04:10:11;21.15;;;9.13;;
40489;SDS011;26196;52.302;10.572;2023-06-22T04:14:11;12.40;;;7.60;;
40489;SDS011;26196;52.302;10.572;2023-06-22T04:18:12;25.23;;;9.57;;
40489;SDS011;26196;52.302;10.572;2023-06-22T04:22:13;16.10;;;8.55;;
40489;SDS011;26196;52.302;10.572;2023-06-22T04:26:13;13.57;;;8.75;;
40489;SDS011;26196;52.302;10.572;2023-06-22T04:30:14;19.05;;;10.02;;
40489;SDS011;26196;52.302;10.572;2023-06-22T04:34:16;18.25;;;9.73;;
40489;SDS011;26196;52.302;10.572;2023-06-22T04:38:17;11.65;;;7.63;;
40489;SDS011;26196;52.302;10.572;2023-06-22T04:42:17;9.53;;;7.63;;
40489;SDS011;26196;52.302;10.572;2023-06-22T04:46:18;9.77;;;7.00;;
40489;SDS011;26196;52.302;10.572;2023-06-22T04:50:18;12.98;;;6.85;;
40489;SDS011;26196;52.302;10.572;2023-06-22T04:54:21;14.95;;;7.05;;
40489;SDS011;26196;52.302;10.572;2023-06-22T04:58:21;14.18;;;7.32;;
40489;SDS011;26196;52.302;10.572;2023-06-22T05:02:21;11.63;;;6.65;;
40489;SDS011;26196;52.302;10.572;2023-06-22T05:06:23;10.27;;;6.22;;
40489;SDS011;26196;52.302;10.572;2023-06-22T05:10:27;7.15;;;6.32;;
40489;SDS011;26196;52.302;10.572;2023-06-22T05:14:28;10.23;;;6.07;;
40489;SDS011;26196;52.302;10.572;2023-06-22T05:18:29;11.02;;;6.95;;
40489;SDS011;26196;52.302;10.572;2023-06-22T05:22:30;9.73;;;6.20;;
40489;SDS011;26196;52.302;10.572;2023-06-22T05:26:31;12.20;;;6.10;;
40489;SDS011;26196;52.302;10.572;2023-06-22T05:30:32;8.13;;;5.65;;
40489;SDS011;26196;52.302;10.572;2023-06-22T05:34:32;10.67;;;5.73;;
40489;SDS011;26196;52.302;10.572;2023-06-22T05:38:33;13.43;;;6.40;;
40489;SDS011;26196;52.302;10.572;2023-06-22T05:42:33;9.68;;;5.53;;
40489;SDS011;26196;52.302;10.572;2023-06-22T05:46:34;12.18;;;6.68;;
40489;SDS011;26196;52.302;10.572;2023-06-22T05:50:34;8.98;;;6.10;;
40489;SDS011;26196;52.302;10.572;2023-06-22T05:54:34;7.40;;;5.27;;
40489;SDS011;26196;52.302;10.572;2023-06-22T05:58:35;8.45;;;5.90;;
40489;SDS011;26196;52.302;10.572;2023-06-22T06:02:36;8.03;;;5.40;;
40489;SDS011;26196;52.302;10.572;2023-06-22T06:06:36;9.90;;;5.15;;
40489;SDS011;26196;52.302;10.572;2023-06-22T06:10:37;8.73;;;4.90;;
40489;SDS011;26196;52.302;10.572;2023-06-22T06:14:38;9.10;;;5.20;;
40489;SDS011;26196;52.302;10.572;2023-06-22T06:18:38;9.87;;;5.10;;
40489;SDS011;26196;52.302;10.572;2023-06-22T06:22:38;10.35;;;5.40;;
40489;SDS011;26196;52.302;10.572;2023-06-22T06:26:39;9.68;;;4.97;;
40489;SDS011;26196;52.302;10.572;2023-06-22T06:30:40;9.00;;;4.88;;
40489;SDS011;26196;52.302;10.572;2023-06-22T06:34:41;6.70;;;4.35;;
40489;SDS011;26196;52.302;10.572;2023-06-22T06:38:41;7.60;;;5.20;;
40489;SDS011;26196;52.302;10.572;2023-06-22T06:42:45;10.47;;;5.83;;
40489;SDS011;26196;52.302;10.572;2023-06-22T06:46:47;5.68;;;4.20;;
40489;SDS011;26196;52.302;10.572;2023-06-22T06:50:47;5.70;;;4.67;;
40489;SDS011;26196;52.302;10.572;2023-06-22T06:54:47;5.05;;;4.55;;
40489;SDS011;26196;52.302;10.572;2023-06-22T06:58:49;6.40;;;4.77;;
40489;SDS011;26196;52.302;10.572;2023-06-22T07:02:51;6.25;;;5.35;;
40489;SDS011;26196;52.302;10.572;2023-06-22T07:06:51;5.85;;;5.25;;
40489;SDS011;26196;52.302;10.572;2023-06-22T07:10:52;5.07;;;4.57;;
40489;SDS011;26196;52.302;10.572;2023-06-22T07:14:52;9.38;;;5.53;;
40489;SDS011;26196;52.302;10.572;2023-06-22T07:18:53;6.75;;;5.70;;
40489;SDS011;26196;52.302;10.572;2023-06-22T07:22:54;6.68;;;5.18;;
40489;SDS011;26196;52.302;10.572;2023-06-22T07:26:54;8.43;;;5.40;;
40489;SDS011;26196;52.302;10.572;2023-06-22T07:30:55;8.40;;;6.10;;
40489;SDS011;26196;52.302;10.572;2023-06-22T07:34:55;8.57;;;5.87;;
40489;SDS011;26196;52.302;10.572;2023-06-22T07:38:55;9.53;;;6.93;;
40489;SDS011;26196;52.302;10.572;2023-06-22T07:42:56;8.90;;;6.37;;
40489;SDS011;26196;52.302;10.572;2023-06-22T07:46:56;7.65;;;5.63;;
40489;SDS011;26196;52.302;10.572;2023-06-22T07:50:56;8.07;;;5.80;;
40489;SDS011;26196;52.302;10.572;2023-06-22T07:54:57;8.85;;;5.95;;
40489;SDS011;26196;52.302;10.572;2023-06-22T07:58:57;7.88;;;6.00;;
40489;SDS011;26196;52.302;10.572;2023-06-22T08:02:59;9.63;;;6.95;;
40489;SDS011;26196;52.302;10.572;2023-06-22T08:06:59;10.27;;;7.75;;
40489;SDS011;26196;52.302;10.572;2023-06-22T08:11:00;9.00;;;6.87;;
40489;SDS011;26196;52.302;10.572;2023-06-22T08:15:00;9.80;;;7.07;;
40489;SDS011;26196;52.302;10.572;2023-06-22T08:19:00;8.32;;;7.03;;
40489;SDS011;26196;52.302;10.572;2023-06-22T08:23:01;10.97;;;7.97;;
40489;SDS011;26196;52.302;10.572;2023-06-22T08:27:07;11.10;;;8.63;;
40489;SDS011;26196;52.302;10.572;2023-06-22T08:31:09;10.30;;;8.20;;
40489;SDS011;26196;52.302;10.572;2023-06-22T08:35:12;10.48;;;7.88;;
40489;SDS011;26196;52.302;10.572;2023-06-22T08:39:12;7.68;;;5.72;;
40489;SDS011;26196;52.302;10.572;2023-06-22T08:43:13;6.88;;;6.18;;
40489;SDS011;26196;52.302;10.572;2023-06-22T08:47:14;6.35;;;5.55;;
40489;SDS011;26196;52.302;10.572;2023-06-22T08:51:14;5.37;;;4.90;;
40489;SDS011;26196;52.302;10.572;2023-06-22T08:55:15;6.70;;;5.70;;
40489;SDS011;26196;52.302;10.572;2023-06-22T08:59:15;5.80;;;5.00;;
40489;SDS011;26196;52.302;10.572;2023-06-22T09:03:15;5.00;;;4.50;;
40489;SDS011;26196;52.302;10.572;2023-06-22T09:07:16;6.15;;;4.40;;
40489;SDS011;26196;52.302;10.572;2023-06-22T09:11:22;5.38;;;4.88;;
40489;SDS011;26196;52.302;10.572;2023-06-22T09:15:22;7.07;;;6.37;;
40489;SDS011;26196;52.302;10.572;2023-06-22T09:19:23;5.38;;;4.88;;
40489;SDS011;26196;52.302;10.572;2023-06-22T09:23:23;5.78;;;4.97;;
40489;SDS011;26196;52.302;10.572;2023-06-22T09:27:23;5.00;;;4.50;;
40489;SDS011;26196;52.302;10.572;2023-06-22T09:31:24;5.00;;;4.60;;
40489;SDS011;26196;52.302;10.572;2023-06-22T09:35:27;7.32;;;5.43;;
40489;SDS011;26196;52.302;10.572;2023-06-22T09:39:27;4.27;;;3.87;;
40489;SDS011;26196;52.302;10.572;2023-06-22T09:43:28;5.23;;;4.73;;
40489;SDS011;26196;52.302;10.572;2023-06-22T09:47:29;5.88;;;5.32;;
40489;SDS011;26196;52.302;10.572;2023-06-22T09:51:30;5.70;;;5.17;;
40489;SDS011;26196;52.302;10.572;2023-06-22T09:55:30;6.00;;;5.40;;
40489;SDS011;26196;52.302;10.572;2023-06-22T09:59:30;5.33;;;4.83;;
40489;SDS011;26196;52.302;10.572;2023-06-22T10:03:31;5.82;;;5.22;;
40489;SDS011;26196;52.302;10.572;2023-06-22T10:07:31;6.43;;;5.63;;
40489;SDS011;26196;52.302;10.572;2023-06-22T10:11:32;6.23;;;5.13;;
40489;SDS011;26196;52.302;10.572;2023-06-22T10:15:34;5.20;;;4.70;;
40489;SDS011;26196;52.302;10.572;2023-06-22T10:19:35;4.93;;;4.30;;
40489;SDS011;26196;52.302;10.572;2023-06-22T10:23:37;6.28;;;5.68;;
40489;SDS011;26196;52.302;10.572;2023-06-22T10:27:37;5.60;;;5.10;;
40489;SDS011;26196;52.302;10.572;2023-06-22T10:31:41;5.57;;;5.07;;
40489;SDS011;26196;52.302;10.572;2023-06-22T10:35:41;5.93;;;5.43;;
40489;SDS011;26196;52.302;10.572;2023-06-22T10:39:41;6.70;;;6.10;;
40489;SDS011;26196;52.302;10.572;2023-06-22T10:43:41;6.30;;;5.27;;
40489;SDS011;26196;52.302;10.572;2023-06-22T10:47:42;6.18;;;5.63;;
40489;SDS011;26196;52.302;10.572;2023-06-22T10:51:42;7.15;;;6.18;;
40489;SDS011;26196;52.302;10.572;2023-06-22T10:55:43;7.43;;;5.63;;
40489;SDS011;26196;52.302;10.572;2023-06-22T10:59:43;7.40;;;6.13;;
40489;SDS011;26196;52.302;10.572;2023-06-22T11:03:44;5.63;;;4.63;;
40489;SDS011;26196;52.302;10.572;2023-06-22T11:07:44;5.38;;;4.88;;
40489;SDS011;26196;52.302;10.572;2023-06-22T11:11:45;5.78;;;5.28;;
40489;SDS011;26196;52.302;10.572;2023-06-22T11:15:45;5.33;;;4.83;;
40489;SDS011;26196;52.302;10.572;2023-06-22T11:19:45;5.77;;;5.27;;
40489;SDS011;26196;52.302;10.572;2023-06-22T11:23:46;6.72;;;6.07;;
40489;SDS011;26196;52.302;10.572;2023-06-22T11:27:46;5.77;;;5.10;;
40489;SDS011;26196;52.302;10.572;2023-06-22T11:31:47;5.80;;;5.18;;
40489;SDS011;26196;52.302;10.572;2023-06-22T11:35:47;5.00;;;4.57;;
40489;SDS011;26196;52.302;10.572;2023-06-22T11:39:47;5.53;;;4.97;;
40489;SDS011;26196;52.302;10.572;2023-06-22T11:43:48;3.40;;;3.10;;
40489;SDS011;26196;52.302;10.572;2023-06-22T11:47:48;4.93;;;4.50;;
40489;SDS011;26196;52.302;10.572;2023-06-22T11:51:49;6.07;;;5.47;;
40489;SDS011;26196;52.302;10.572;2023-06-22T11:55:49;6.00;;;5.40;;
40489;SDS011;26196;52.302;10.572;2023-06-22T11:59:49;5.72;;;5.20;;
40489;SDS011;26196;52.302;10.572;2023-06-22T12:03:50;6.60;;;6.00;;
40489;SDS011;26196;52.302;10.572;2023-06-22T12:07:53;8.10;;;6.57;;
40489;SDS011;26196;52.302;10.572;2023-06-22T12:11:54;11.63;;;6.22;;
40489;SDS011;26196;52.302;10.572;2023-06-22T12:15:54;9.50;;;7.00;;
40489;SDS011;26196;52.302;10.572;2023-06-22T12:19:55;8.88;;;7.97;;
40489;SDS011;26196;52.302;10.572;2023-06-22T12:23:55;8.82;;;7.90;;
40489;SDS011;26196;52.302;10.572;2023-06-22T12:27:56;9.37;;;8.47;;
40489;SDS011;26196;52.302;10.572;2023-06-22T12:31:56;8.18;;;7.38;;
40489;SDS011;26196;52.302;10.572;2023-06-22T12:35:57;9.13;;;7.75;;
40489;SDS011;26196;52.302;10.572;2023-06-22T12:39:57;8.70;;;7.75;;
40489;SDS011;26196;52.302;10.572;2023-06-22T12:43:57;8.05;;;6.45;;
40489;SDS011;26196;52.302;10.572;2023-06-22T12:47:58;11.73;;;8.70;;
40489;SDS011;26196;52.302;10.572;2023-06-22T12:51:59;9.45;;;7.88;;
40489;SDS011;26196;52.302;10.572;2023-06-22T12:55:59;8.47;;;6.67;;
40489;SDS011;26196;52.302;10.572;2023-06-22T13:00:00;8.80;;;7.90;;
40489;SDS011;26196;52.302;10.572;2023-06-22T13:04:00;13.13;;;8.98;;
40489;SDS011;26196;52.302;10.572;2023-06-22T13:08:01;11.50;;;8.47;;
40489;SDS011;26196;52.302;10.572;2023-06-22T13:12:01;9.90;;;8.80;;
40489;SDS011;26196;52.302;10.572;2023-06-22T13:16:02;10.02;;;8.55;;
40489;SDS011;26196;52.302;10.572;2023-06-22T13:20:02;15.05;;;9.02;;
40489;SDS011;26196;52.302;10.572;2023-06-22T13:24:04;12.25;;;8.82;;
40489;SDS011;26196;52.302;10.572;2023-06-22T13:28:06;14.88;;;9.65;;
40489;SDS011;26196;52.302;10.572;2023-06-22T13:32:06;9.55;;;8.65;;
40489;SDS011;26196;52.302;10.572;2023-06-22T13:36:07;9.57;;;8.52;;
40489;SDS011;26196;52.302;10.572;2023-06-22T13:40:08;9.65;;;8.63;;
40489;SDS011;26196;52.302;10.572;2023-06-22T13:44:09;10.00;;;9.10;;
40489;SDS011;26196;52.302;10.572;2023-06-22T13:48:10;10.70;;;8.93;;
40489;SDS011;26196;52.302;10.572;2023-06-22T13:52:10;10.40;;;9.15;;
40489;SDS011;26196;52.302;10.572;2023-06-22T13:56:12;12.57;;;8.90;;
40489;SDS011;26196;52.302;10.572;2023-06-22T14:00:13;13.37;;;10.03;;
40489;SDS011;26196;52.302;10.572;2023-06-22T14:04:13;17.17;;;9.35;;
40489;SDS011;26196;52.302;10.572;2023-06-22T14:08:14;10.80;;;8.80;;
40489;SDS011;26196;52.302;10.572;2023-06-22T14:12:14;10.05;;;9.05;;
40489;SDS011;26196;52.302;10.572;2023-06-22T14:16:15;9.20;;;8.25;;
40489;SDS011;26196;52.302;10.572;2023-06-22T14:20:16;11.07;;;9.88;;
40489;SDS011;26196;52.302;10.572;2023-06-22T14:24:17;10.00;;;9.00;;
40489;SDS011;26196;52.302;10.572;2023-06-22T14:28:17;11.05;;;10.05;;
40489;SDS011;26196;52.302;10.572;2023-06-22T14:32:17;10.30;;;9.18;;
40489;SDS011;26196;52.302;10.572;2023-06-22T14:36:18;10.05;;;9.05;;
40489;SDS011;26196;52.302;10.572;2023-06-22T14:40:19;10.20;;;9.05;;
40489;SDS011;26196;52.302;10.572;2023-06-22T14:44:19;9.60;;;8.10;;
40489;SDS011;26196;52.302;10.572;2023-06-22T14:48:19;8.40;;;7.53;;
40489;SDS011;26196;52.302;10.572;2023-06-22T14:52:20;11.03;;;9.83;;
40489;SDS011;26196;52.302;10.572;2023-06-22T14:56:20;13.32;;;10.10;;
40489;SDS011;26196;52.302;10.572;2023-06-22T15:00:20;9.88;;;8.65;;
40489;SDS011;26196;52.302;10.572;2023-06-22T15:04:21;12.13;;;8.70;;
40489;SDS011;26196;52.302;10.572;2023-06-22T15:08:21;9.35;;;7.75;;
40489;SDS011;26196;52.302;10.572;2023-06-22T15:12:22;8.80;;;7.90;;
40489;SDS011;26196;52.302;10.572;2023-06-22T15:16:22;8.95;;;7.82;;
40489;SDS011;26196;52.302;10.572;2023-06-22T15:20:23;9.15;;;8.35;;
40489;SDS011;26196;52.302;10.572;2023-06-22T15:29:20;8.10;;;7.30;;
40489;SDS011;26196;52.302;10.572;2023-06-22T15:33:20;8.52;;;7.60;;
40489;SDS011;26196;52.302;10.572;2023-06-22T15:37:20;9.97;;;8.10;;
40489;SDS011;26196;52.302;10.572;2023-06-22T15:41:21;9.48;;;8.57;;
40489;SDS011;26196;52.302;10.572;2023-06-22T15:45:22;10.30;;;8.55;;
40489;SDS011;26196;52.302;10.572;2023-06-22T15:49:23;8.07;;;7.27;;
40489;SDS011;26196;52.302;10.572;2023-06-22T15:53:23;9.73;;;8.82;;
40489;SDS011;26196;52.302;10.572;2023-06-22T15:57:25;12.75;;;7.47;;
40489;SDS011;26196;52.302;10.572;2023-06-22T16:01:26;11.88;;;7.97;;
40489;SDS011;26196;52.302;10.572;2023-06-22T16:05:27;10.27;;;8.25;;
40489;SDS011;26196;52.302;10.572;2023-06-22T16:09:27;9.60;;;8.00;;
40489;SDS011;26196;52.302;10.572;2023-06-22T16:13:29;27.95;;;8.65;;
40489;SDS011;26196;52.302;10.572;2023-06-22T16:17:30;10.18;;;7.88;;
40489;SDS011;26196;52.302;10.572;2023-06-22T16:21:30;12.32;;;7.53;;
40489;SDS011;26196;52.302;10.572;2023-06-22T16:25:30;11.27;;;7.93;;
40489;SDS011;26196;52.302;10.572;2023-06-22T16:29:31;13.63;;;8.33;;
40489;SDS011;26196;52.302;10.572;2023-06-22T16:33:31;8.88;;;7.30;;
40489;SDS011;26196;52.302;10.572;2023-06-22T16:37:31;12.97;;;8.17;;
40489;SDS011;26196;52.302;10.572;2023-06-22T16:41:32;12.20;;;7.95;;
40489;SDS011;26196;52.302;10.572;2023-06-22T16:45:32;11.13;;;8.23;;
40489;SDS011;26196;52.302;10.572;2023-06-22T16:49:34;9.25;;;7.70;;
40489;SDS011;26196;52.302;10.572;2023-06-22T16:53:36;17.05;;;7.50;;
40489;SDS011;26196;52.302;10.572;2023-06-22T16:57:37;8.27;;;6.50;;
40489;SDS011;26196;52.302;10.572;2023-06-22T17:01:38;11.77;;;7.07;;
40489;SDS011;26196;52.302;10.572;2023-06-22T17:05:50;7.53;;;5.68;;
40489;SDS011;26196;52.302;10.572;2023-06-22T17:09:55;4.28;;;3.00;;
40489;SDS011;26196;52.302;10.572;2023-06-22T17:13:59;5.47;;;2.47;;
40489;SDS011;26196;52.302;10.572;2023-06-22T17:18:02;4.43;;;2.13;;
40489;SDS011;26196;52.302;10.572;2023-06-22T17:22:04;4.13;;;1.92;;
40489;SDS011;26196;52.302;10.572;2023-06-22T17:26:05;6.27;;;2.40;;
40489;SDS011;26196;52.302;10.572;2023-06-22T17:30:07;4.82;;;2.58;;
40489;SDS011;26196;52.302;10.572;2023-06-22T17:34:10;7.93;;;2.55;;
40489;SDS011;26196;52.302;10.572;2023-06-22T17:38:15;7.68;;;2.10;;
40489;SDS011;26196;52.302;10.572;2023-06-22T17:42:23;8.43;;;2.80;;
40489;SDS011;26196;52.302;10.572;2023-06-22T17:46:23;6.60;;;2.05;;
40489;SDS011;26196;52.302;10.572;2023-06-22T17:50:25;8.55;;;3.45;;
40489;SDS011;26196;52.302;10.572;2023-06-22T17:54:29;8.00;;;2.17;;
40489;SDS011;26196;52.302;10.572;2023-06-22T17:58:30;3.40;;;2.20;;
40489;SDS011;26196;52.302;10.572;2023-06-22T18:02:30;7.35;;;2.58;;
40489;SDS011;26196;52.302;10.572;2023-06-22T18:06:31;6.65;;;2.60;;
40489;SDS011;26196;52.302;10.572;2023-06-22T18:10:35;8.13;;;1.70;;
40489;SDS011;26196;52.302;10.572;2023-06-22T18:14:36;7.15;;;1.20;;
40489;SDS011;26196;52.302;10.572;2023-06-22T18:18:37;4.32;;;1.15;;
40489;SDS011;26196;52.302;10.572;2023-06-22T18:22:39;3.58;;;1.30;;
40489;SDS011;26196;52.302;10.572;2023-06-22T18:26:41;3.80;;;1.50;;
40489;SDS011;26196;52.302;10.572;2023-06-22T18:30:41;2.25;;;1.00;;
40489;SDS011;26196;52.302;10.572;2023-06-22T18:34:42;6.40;;;1.17;;
40489;SDS011;26196;52.302;10.572;2023-06-22T18:38:43;4.15;;;0.77;;
40489;SDS011;26196;52.302;10.572;2023-06-22T18:42:49;6.32;;;1.52;;
40489;SDS011;26196;52.302;10.572;2023-06-22T18:46:50;3.22;;;1.10;;
40489;SDS011;26196;52.302;10.572;2023-06-22T18:50:55;5.65;;;1.13;;
40489;SDS011;26196;52.302;10.572;2023-06-22T18:55:13;5.90;;;2.28;;
40489;SDS011;26196;52.302;10.572;2023-06-22T18:59:13;3.90;;;1.60;;
40489;SDS011;26196;52.302;10.572;2023-06-22T19:03:32;7.57;;;1.63;;
40489;SDS011;26196;52.302;10.572;2023-06-22T19:16:32;4.70;;;1.40;;
40489;SDS011;26196;52.302;10.572;2023-06-22T19:20:32;3.17;;;1.30;;
40489;SDS011;26196;52.302;10.572;2023-06-22T19:25:07;15.40;;;3.97;;
40489;SDS011;26196;52.302;10.572;2023-06-22T19:29:00;3.50;;;1.80;;
40489;SDS011;26196;52.302;10.572;2023-06-22T19:33:14;6.60;;;1.60;;
40489;SDS011;26196;52.302;10.572;2023-06-22T19:37:15;12.95;;;2.30;;
40489;SDS011;26196;52.302;10.572;2023-06-22T19:41:16;6.82;;;2.50;;
40489;SDS011;26196;52.302;10.572;2023-06-22T19:45:16;9.63;;;1.80;;
40489;SDS011;26196;52.302;10.572;2023-06-22T19:49:17;5.18;;;1.52;;
40489;SDS011;26196;52.302;10.572;2023-06-22T19:53:17;9.75;;;2.03;;
40489;SDS011;26196;52.302;10.572;2023-06-22T19:57:18;4.72;;;2.05;;
40489;SDS011;26196;52.302;10.572;2023-06-22T20:01:19;9.05;;;2.00;;
40489;SDS011;26196;52.302;10.572;2023-06-22T20:05:19;7.38;;;2.60;;
40489;SDS011;26196;52.302;10.572;2023-06-22T20:09:21;11.88;;;2.55;;
40489;SDS011;26196;52.302;10.572;2023-06-22T20:13:22;7.97;;;2.80;;
40489;SDS011;26196;52.302;10.572;2023-06-22T20:17:22;9.57;;;2.37;;
40489;SDS011;26196;52.302;10.572;2023-06-22T20:21:23;7.93;;;3.38;;
40489;SDS011;26196;52.302;10.572;2023-06-22T20:25:24;6.75;;;2.33;;
40489;SDS011;26196;52.302;10.572;2023-06-22T20:33:25;5.07;;;1.87;;
40489;SDS011;26196;52.302;10.572;2023-06-22T20:37:26;3.67;;;1.38;;
40489;SDS011;26196;52.302;10.572;2023-06-22T20:41:28;4.28;;;2.10;;
40489;SDS011;26196;52.302;10.572;2023-06-22T20:45:31;6.00;;;1.50;;
40489;SDS011;26196;52.302;10.572;2023-06-22T20:49:31;3.83;;;2.27;;
40489;SDS011;26196;52.302;10.572;2023-06-22T20:53:32;4.67;;;2.07;;
40489;SDS011;26196;52.302;10.572;2023-06-22T20:57:32;5.97;;;2.42;;
40489;SDS011;26196;52.302;10.572;2023-06-22T21:01:32;2.83;;;1.67;;
40489;SDS011;26196;52.302;10.572;2023-06-22T21:05:33;6.00;;;2.00;;
40489;SDS011;26196;52.302;10.572;2023-06-22T21:09:33;4.47;;;1.48;;
40489;SDS011;26196;52.302;10.572;2023-06-22T21:13:34;6.03;;;1.98;;
40489;SDS011;26196;52.302;10.572;2023-06-22T21:17:36;4.68;;;2.03;;
40489;SDS011;26196;52.302;10.572;2023-06-22T21:21:36;2.40;;;1.40;;
40489;SDS011;26196;52.302;10.572;2023-06-22T21:25:37;3.90;;;1.77;;
40489;SDS011;26196;52.302;10.572;2023-06-22T21:29:38;3.50;;;1.50;;
40489;SDS011;26196;52.302;10.572;2023-06-22T21:33:38;5.23;;;1.60;;
40489;SDS011;26196;52.302;10.572;2023-06-22T21:37:41;3.20;;;1.77;;
40489;SDS011;26196;52.302;10.572;2023-06-22T21:41:41;3.83;;;2.03;;
40489;SDS011;26196;52.302;10.572;2023-06-22T21:45:42;3.23;;;1.67;;
40489;SDS011;26196;52.302;10.572;2023-06-22T21:49:42;4.23;;;2.10;;
40489;SDS011;26196;52.302;10.572;2023-06-22T21:53:43;4.50;;;1.75;;
40489;SDS011;26196;52.302;10.572;2023-06-22T21:57:43;3.53;;;1.80;;
40489;SDS011;26196;52.302;10.572;2023-06-22T22:01:43;5.30;;;1.75;;
40489;SDS011;26196;52.302;10.572;2023-06-22T22:05:44;5.53;;;2.27;;
40489;SDS011;26196;52.302;10.572;2023-06-22T22:09:44;3.40;;;1.30;;
40489;SDS011;26196;52.302;10.572;2023-06-22T22:13:45;2.50;;;1.70;;
40489;SDS011;26196;52.302;10.572;2023-06-22T22:17:45;3.05;;;1.60;;
40489;SDS011;26196;52.302;10.572;2023-06-22T22:21:46;3.00;;;1.58;;
40489;SDS011;26196;52.302;10.572;2023-06-22T22:25:47;5.72;;;1.85;;
40489;SDS011;26196;52.302;10.572;2023-06-22T22:29:47;5.33;;;1.60;;
40489;SDS011;26196;52.302;10.572;2023-06-22T22:33:47;5.10;;;1.90;;
40489;SDS011;26196;52.302;10.572;2023-06-22T22:37:48;6.22;;;1.70;;
40489;SDS011;26196;52.302;10.572;2023-06-22T22:41:48;4.03;;;1.67;;
40489;SDS011;26196;52.302;10.572;2023-06-22T22:45:48;4.67;;;1.97;;
40489;SDS011;26196;52.302;10.572;2023-06-22T22:49:49;3.60;;;1.63;;
40489;SDS011;26196;52.302;10.572;2023-06-22T22:53:49;4.93;;;1.87;;
40489;SDS011;26196;52.302;10.572;2023-06-22T22:57:49;3.25;;;1.40;;
40489;SDS011;26196;52.302;10.572;2023-06-22T23:01:50;4.80;;;1.30;;
40489;SDS011;26196;52.302;10.572;2023-06-22T23:05:50;3.00;;;1.77;;
40489;SDS011;26196;52.302;10.572;2023-06-22T23:09:51;4.43;;;1.98;;
40489;SDS011;26196;52.302;10.572;2023-06-22T23:13:51;2.92;;;1.33;;
40489;SDS011;26196;52.302;10.572;2023-06-22T23:17:57;5.07;;;1.95;;
40489;SDS011;26196;52.302;10.572;2023-06-22T23:21:57;4.63;;;1.40;;
40489;SDS011;26196;52.302;10.572;2023-06-22T23:25:58;1.63;;;1.05;;
40489;SDS011;26196;52.302;10.572;2023-06-22T23:29:58;2.95;;;1.10;;
40489;SDS011;26196;52.302;10.572;2023-06-22T23:33:58;2.13;;;1.10;;
40489;SDS011;26196;52.302;10.572;2023-06-22T23:38:02;4.18;;;1.45;;
40489;SDS011;26196;52.302;10.572;2023-06-22T23:42:03;2.50;;;1.20;;
40489;SDS011;26196;52.302;10.572;2023-06-22T23:46:04;4.05;;;1.58;;
40489;SDS011;26196;52.302;10.572;2023-06-22T23:50:04;2.45;;;1.35;;
40489;SDS011;26196;52.302;10.572;2023-06-22T23:54:05;1.73;;;0.88;;
40489;SDS011;26196;52.302;10.572;2023-06-22T23:58:05;3.10;;;1.42;;
